Time;durP1;ratioP1;P1;durP2;ratioP2;P2;SDS_P1;SDS_P2;PMS_P1;PMS_P2;Temp;Humidity;BMP_temperature;BMP_pressure;BME280_temperature;BME280_humidity;BME280_pressure;Samples;Min_cycle;Max_cycle;Signal;HPM_P1;HPM_P2
2023/08/06 00:01:06;;;;;;;18.77;11.98;;;13.90;99.90;;;15.19;100.00;99631.63;5020862;28;20029;-77
2023/08/06 00:03:32;;;;;;;20.85;12.60;;;13.90;99.90;;;15.39;100.00;99636.31;5013047;28;20029;-77
2023/08/06 00:05:58;;;;;;;21.98;12.68;;;13.90;99.90;;;15.21;100.00;99656.06;5020028;28;20402;-77
2023/08/06 00:08:23;;;;;;;26.65;13.00;;;13.90;99.90;;;15.16;100.00;99643.16;5024561;28;20046;-77
2023/08/06 00:10:49;;;;;;;23.55;13.38;;;13.90;99.90;;;15.23;100.00;99632.72;5027684;28;20417;-77
2023/08/06 00:13:15;;;;;;;28.30;15.13;;;13.90;99.90;;;15.13;100.00;99627.22;5013998;28;20471;-77
2023/08/06 00:15:41;;;;;;;36.38;15.73;;;13.80;99.90;;;15.09;100.00;99624.19;5024678;28;20053;-79
2023/08/06 00:18:06;;;;;;;40.17;16.48;;;13.80;99.90;;;15.16;100.00;99609.38;5027561;28;20393;-77
2023/08/06 00:20:32;;;;;;;36.70;17.15;;;13.90;99.90;;;15.20;100.00;99604.97;5022058;28;20100;-77
2023/08/06 00:22:58;;;;;;;39.13;18.92;;;13.90;99.90;;;15.19;100.00;99600.59;5027516;28;20021;-77
2023/08/06 00:25:23;;;;;;;37.58;17.77;;;13.80;99.90;;;15.18;100.00;99599.75;5027501;28;20434;-77
2023/08/06 00:27:49;;;;;;;35.42;18.40;;;13.80;99.90;;;15.19;100.00;99597.84;5026095;28;20049;-77
2023/08/06 00:30:15;;;;;;;30.95;16.50;;;13.80;99.90;;;15.20;100.00;99603.03;5028390;28;20038;-77
2023/08/06 00:32:41;;;;;;;33.38;17.65;;;13.80;99.90;;;15.21;100.00;99603.88;5027243;28;20041;-78
2023/08/06 00:35:07;;;;;;;35.92;17.40;;;13.80;99.90;;;15.23;100.00;99605.25;5015696;28;20385;-78
2023/08/06 00:37:33;;;;;;;35.03;16.85;;;13.80;99.90;;;15.25;100.00;99602.22;5022938;28;20342;-78
2023/08/06 00:39:59;;;;;;;34.53;16.60;;;13.80;99.90;;;15.17;100.00;99584.38;5027995;28;20033;-77
2023/08/06 00:42:25;;;;;;;37.10;17.10;;;13.80;99.90;;;15.19;100.00;99592.34;5026272;28;20398;-78
2023/08/06 00:44:51;;;;;;;34.88;16.67;;;13.80;99.90;;;15.14;100.00;99575.88;5026550;28;20044;-78
2023/08/06 00:47:17;;;;;;;50.53;17.27;;;13.70;99.90;;;15.17;100.00;99583.56;5027782;28;20029;-78
2023/08/06 00:49:44;;;;;;;47.13;17.97;;;13.70;99.90;;;15.13;100.00;99571.47;5027230;28;20038;-78
2023/08/06 00:52:10;;;;;;;27.48;14.50;;;13.70;99.90;;;15.03;100.00;99559.34;5026991;28;20286;-78
2023/08/06 00:54:37;;;;;;;29.52;15.55;;;13.70;99.90;;;15.03;100.00;99555.81;5026307;28;20029;-78
2023/08/06 00:57:05;;;;;;;28.52;14.90;;;13.60;99.90;;;15.01;100.00;99547.00;5026984;28;20052;-78
2023/08/06 00:59:32;;;;;;;23.10;13.55;;;13.60;99.90;;;15.02;100.00;99562.41;5027268;28;20132;-78
2023/08/06 01:01:58;;;;;;;23.30;13.77;;;13.50;99.90;;;14.96;100.00;99572.53;5003244;28;20053;-78
2023/08/06 01:04:24;;;;;;;30.02;14.57;;;13.60;99.90;;;15.05;100.00;99579.13;5026688;28;20033;-77
2023/08/06 01:07:11;;;;;;;25.70;13.00;;;13.60;99.90;;;14.98;100.00;99564.84;5026528;28;20084;-77
2023/08/06 01:10:23;;;;;;;22.95;12.35;;;13.50;99.90;;;14.91;100.00;99553.31;5028190;28;20037;-77
2023/08/06 01:13:14;;;;;;;22.45;12.25;;;13.50;99.90;;;14.96;100.00;99545.88;5018192;28;20088;-77
2023/08/06 01:15:49;;;;;;;26.38;13.95;;;13.50;99.90;;;14.90;100.00;99546.97;5026426;28;20038;-78
2023/08/06 01:18:15;;;;;;;22.75;12.77;;;13.50;99.90;;;14.91;100.00;99556.06;4999441;28;20433;-77
2023/08/06 01:20:41;;;;;;;28.83;14.20;;;13.40;99.90;;;14.93;100.00;99560.16;5024777;28;20053;-77
2023/08/06 01:23:07;;;;;;;45.55;13.93;;;13.40;99.90;;;15.38;100.00;99570.63;5030447;28;20037;-77
2023/08/06 01:25:53;;;;;;;41.45;14.93;;;13.40;99.90;;;15.10;100.00;99606.59;5029843;28;20104;-76
2023/08/06 01:28:54;;;;;;;32.85;14.93;;;13.50;99.90;;;14.81;100.00;99585.13;5024736;28;20034;-76
2023/08/06 01:31:26;;;;;;;44.92;16.45;;;13.50;99.90;;;14.77;100.00;99548.34;5024903;28;20568;-77
2023/08/06 01:33:54;;;;;;;25.98;13.15;;;13.50;99.90;;;14.71;100.00;99530.22;5041892;28;20034;-77
2023/08/06 01:36:21;;;;;;;26.42;13.88;;;13.50;99.90;;;14.69;100.00;99515.91;5026449;28;20137;-77
2023/08/06 01:38:47;;;;;;;23.73;12.82;;;13.40;99.90;;;15.59;100.00;99527.47;5026262;28;20056;-77
2023/08/06 01:41:13;;;;;;;26.02;13.13;;;13.40;99.90;;;15.73;100.00;99568.94;5028940;28;20038;-77
2023/08/06 01:43:39;;;;;;;25.70;13.93;;;13.40;99.90;;;14.68;100.00;99564.47;5045355;28;20044;-77
2023/08/06 01:46:04;;;;;;;28.58;15.02;;;13.40;99.90;;;14.68;100.00;99555.44;5044054;28;20049;-76
2023/08/06 01:48:30;;;;;;;33.50;15.25;;;13.30;99.90;;;14.58;100.00;99525.19;5039291;28;20129;-77
2023/08/06 01:50:56;;;;;;;38.53;15.85;;;13.30;99.90;;;14.64;100.00;99513.97;5035566;28;20037;-76
2023/08/06 01:53:22;;;;;;;42.05;17.60;;;13.30;99.90;;;15.51;100.00;99526.09;5023305;28;20087;-77
2023/08/06 01:55:49;;;;;;;34.88;15.68;;;13.30;99.90;;;15.70;100.00;99587.94;5030052;28;20041;-77
2023/08/06 01:58:15;;;;;;;56.65;19.10;;;13.30;99.90;;;14.86;100.00;99603.53;5042225;28;20030;-77
2023/08/06 02:00:41;;;;;;;38.47;17.30;;;13.30;99.90;;;14.62;100.00;99559.28;5034860;28;20038;-77
2023/08/06 02:03:07;;;;;;;42.72;17.55;;;13.20;99.90;;;14.78;100.00;99533.50;5028844;28;20052;-77
2023/08/06 02:05:32;;;;;;;33.92;17.02;;;13.20;99.90;;;14.48;100.00;99504.88;5028889;28;20034;-77
2023/08/06 02:07:58;;;;;;;33.67;16.13;;;13.20;99.90;;;14.49;100.00;99517.50;5028881;28;20045;-77
2023/08/06 02:10:24;;;;;;;35.05;16.58;;;13.10;99.90;;;15.27;100.00;99531.34;5029574;28;20385;-78
2023/08/06 02:12:50;;;;;;;33.08;16.70;;;13.10;99.90;;;15.41;100.00;99572.84;5029335;28;20041;-77
2023/08/06 02:15:15;;;;;;;55.75;18.92;;;13.10;99.90;;;15.55;100.00;99614.31;5029514;28;20038;-77
2023/08/06 02:17:41;;;;;;;61.55;18.83;;;13.10;99.90;;;15.58;100.00;99638.50;5030232;28;20037;-78
2023/08/06 02:20:07;;;;;;;55.72;20.05;;;13.20;99.90;;;15.59;100.00;99631.09;5044691;28;20029;-77
2023/08/06 02:22:34;;;;;;;64.47;21.13;;;13.20;99.90;;;14.83;100.00;99604.09;5017277;28;20064;-77
2023/08/06 02:24:59;;;;;;;82.38;22.20;;;13.20;99.90;;;15.35;100.00;99584.94;5022101;28;20046;-77
2023/08/06 02:27:25;;;;;;;45.92;19.83;;;13.20;99.90;;;15.53;100.00;99603.63;5021510;28;20037;-78
2023/08/06 02:29:51;;;;;;;64.00;21.70;;;13.20;99.90;;;14.98;100.00;99616.19;5043126;28;20120;-77
2023/08/06 02:32:17;;;;;;;65.95;22.42;;;13.20;99.90;;;14.61;100.00;99566.66;5029646;28;20064;-78
2023/08/06 02:34:43;;;;;;;60.45;22.83;;;13.30;99.90;;;15.22;100.00;99539.59;5019240;28;20446;-77
2023/08/06 02:37:08;;;;;;;51.47;21.98;;;13.30;99.90;;;14.62;100.00;99538.13;5022938;28;20036;-78
2023/08/06 02:39:35;;;;;;;60.17;23.58;;;13.30;99.90;;;14.57;100.00;99520.81;5026080;28;20037;-78
2023/08/06 02:42:01;;;;;;;59.65;22.85;;;13.30;99.90;;;14.57;100.00;99496.94;5042606;28;20452;-77
2023/08/06 02:44:31;;;;;;;54.17;22.50;;;13.30;99.90;;;15.50;100.00;99527.19;5029958;28;20444;-77
2023/08/06 02:46:56;;;;;;;61.88;22.13;;;13.40;99.90;;;14.87;100.00;99552.22;5021502;28;20049;-77
2023/08/06 02:49:22;;;;;;;59.63;20.98;;;13.40;99.90;;;14.86;100.00;99540.41;5044924;28;20034;-76
2023/08/06 02:51:48;;;;;;;60.15;20.50;;;13.40;99.90;;;14.70;100.00;99520.31;5027134;28;20037;-78
2023/08/06 02:54:14;;;;;;;42.28;19.27;;;13.30;99.90;;;14.58;100.00;99492.28;5028698;28;20040;-78
2023/08/06 02:56:44;;;;;;;55.90;20.88;;;13.30;99.90;;;14.52;100.00;99475.81;5031062;28;20038;-77
2023/08/06 02:59:16;;;;;;;58.95;20.83;;;13.20;99.90;;;15.06;100.00;99472.84;5032154;28;20392;-77
2023/08/06 03:02:02;;;;;;;49.72;18.92;;;13.20;99.90;;;15.44;100.00;99509.06;5025715;28;20094;-78
2023/08/06 03:04:38;;;;;;;55.55;19.60;;;13.20;99.90;;;15.58;100.00;99544.25;5024808;28;20375;-78
2023/08/06 03:07:04;;;;;;;46.08;19.30;;;13.10;99.90;;;15.58;100.00;99567.03;5036654;28;20057;-77
2023/08/06 03:09:38;;;;;;;60.47;21.02;;;13.10;99.90;;;14.63;100.00;99552.69;5025853;28;20040;-78
2023/08/06 03:12:05;;;;;;;65.38;20.70;;;13.10;99.90;;;14.31;100.00;99496.06;5045090;28;20018;-78
2023/08/06 03:14:31;;;;;;;169.68;20.23;;;13.00;99.90;;;14.35;100.00;99492.50;5049523;28;20033;-77
2023/08/06 03:16:57;;;;;;;35.08;13.90;;;13.00;99.90;;;14.61;100.00;99469.78;5057396;28;20014;-78
2023/08/06 03:19:23;;;;;;;34.90;16.23;;;12.90;99.90;;;15.22;100.00;99503.88;5056783;28;20013;-78
2023/08/06 03:21:49;;;;;;;37.72;17.13;;;12.90;99.90;;;15.10;100.00;99510.47;5045156;28;20029;-77
2023/08/06 03:24:16;;;;;;;40.85;17.25;;;12.80;99.90;;;15.25;100.00;99536.28;5053492;28;20037;-77
2023/08/06 03:26:43;;;;;;;51.30;18.42;;;12.80;99.90;;;15.17;100.00;99534.09;5036780;28;20441;-76
2023/08/06 03:29:11;;;;;;;52.42;19.75;;;13.00;99.90;;;14.32;100.00;99503.19;5031837;28;20033;-76
2023/08/06 03:31:37;;;;;;;43.42;18.73;;;13.10;99.90;;;14.30;100.00;99447.75;5042454;28;20109;-76
2023/08/06 03:34:03;;;;;;;48.92;20.25;;;13.10;99.90;;;14.98;100.00;99429.44;5029385;28;20068;-76
2023/08/06 03:36:31;;;;;;;40.45;18.65;;;13.10;99.90;;;15.33;100.00;99477.22;5024128;28;20457;-76
2023/08/06 03:38:56;;;;;;;54.55;18.08;;;13.00;99.90;;;14.63;100.00;99503.28;5018851;28;20049;-76
2023/08/06 03:41:22;;;;;;;59.97;17.83;;;12.90;99.90;;;14.34;100.00;99490.03;5022030;28;20120;-76
2023/08/06 03:43:49;;;;;;;52.90;18.35;;;12.80;99.90;;;14.95;100.00;99481.09;5010217;28;20041;-76
2023/08/06 03:46:21;;;;;;;77.82;22.45;;;12.80;99.90;;;14.29;100.00;99485.38;5034142;28;20029;-76
2023/08/06 03:48:47;;;;;;;66.95;23.38;;;12.90;99.90;;;14.26;100.00;99450.25;5019131;28;20116;-76
2023/08/06 03:51:13;;;;;;;74.88;23.73;;;13.00;99.90;;;14.30;100.00;99414.84;5022468;28;20180;-76
2023/08/06 03:53:43;;;;;;;60.95;20.58;;;13.00;99.90;;;14.26;100.00;99398.13;5019292;28;20041;-77
2023/08/06 03:56:09;;;;;;;58.75;19.90;;;13.00;99.90;;;15.15;100.00;99404.47;5001743;28;20030;-76
2023/08/06 03:58:35;;;;;;;71.22;22.92;;;13.00;99.90;;;14.44;100.00;99437.94;5035255;28;20068;-76
2023/08/06 04:01:02;;;;;;;64.28;20.83;;;13.00;99.90;;;14.26;100.00;99413.75;5015865;28;20034;-76
2023/08/06 04:03:34;;;;;;;47.00;18.05;;;13.00;99.90;;;14.35;100.00;99417.63;5022368;28;20075;-76
2023/08/06 04:06:02;;;;;;;59.65;20.50;;;13.00;99.90;;;14.29;100.00;99394.84;5024692;28;20030;-76
2023/08/06 04:08:28;;;;;;;87.13;21.75;;;13.00;99.90;;;14.20;100.00;99388.25;5000737;28;20072;-76
2023/08/06 04:10:54;;;;;;;76.35;21.20;;;13.00;99.90;;;14.21;100.00;99376.19;5020764;28;20029;-77
2023/08/06 04:13:20;;;;;;;131.32;21.05;;;13.10;99.90;;;14.33;100.00;99381.41;5024079;28;20051;-75
2023/08/06 04:15:47;;;;;;;86.75;19.50;;;13.10;99.90;;;14.18;100.00;99363.81;5022795;28;20042;-75
2023/08/06 04:18:13;;;;;;;45.95;17.40;;;13.00;99.90;;;14.57;100.00;99400.91;5002721;28;20038;-75
2023/08/06 04:20:46;;;;;;;39.17;16.42;;;13.00;99.90;;;15.24;100.00;99425.56;5028819;28;20044;-77
2023/08/06 04:23:13;;;;;;;68.93;18.60;;;13.00;99.90;;;15.27;100.00;99465.41;5006276;28;20112;-78
2023/08/06 04:25:39;;;;;;;43.25;15.85;;;13.00;99.90;;;15.32;100.00;99492.88;5030771;28;20053;-80
2023/08/06 04:28:05;;;;;;;42.58;15.20;;;13.00;99.90;;;15.46;100.00;99539.84;5021137;28;20030;-76
2023/08/06 04:30:31;;;;;;;40.95;15.98;;;13.00;99.90;;;15.31;100.00;99537.13;5027968;28;20493;-76
2023/08/06 04:32:58;;;;;;;47.28;15.55;;;13.00;99.90;;;14.82;100.00;99528.31;5019232;28;20213;-75
2023/08/06 04:35:25;;;;;;;37.58;15.88;;;13.00;99.90;;;14.56;100.00;99491.72;5027644;28;20033;-75
2023/08/06 04:37:51;;;;;;;58.47;15.13;;;13.10;99.90;;;14.50;100.00;99457.97;5024135;28;20707;-75
2023/08/06 04:40:17;;;;;;;129.30;18.67;;;13.10;99.90;;;14.47;100.00;99445.63;5027282;28;20116;-76
2023/08/06 04:42:43;;;;;;;129.20;18.23;;;13.10;99.90;;;14.50;100.00;99427.78;5028195;28;20521;-76
2023/08/06 04:45:09;;;;;;;33.85;15.75;;;13.10;99.90;;;14.55;100.00;99415.97;5026183;28;20037;-75
2023/08/06 04:47:35;;;;;;;48.72;17.60;;;13.20;99.90;;;14.63;100.00;99401.72;5030059;28;20462;-74
2023/08/06 04:50:01;;;;;;;40.83;14.80;;;13.20;99.90;;;14.73;100.00;99398.19;5031551;28;20044;-74
2023/08/06 04:52:28;;;;;;;108.00;19.92;;;13.30;99.90;;;14.77;100.00;99388.31;5027247;28;20046;-75
2023/08/06 04:54:54;;;;;;;60.58;18.65;;;13.30;99.90;;;14.86;100.00;99392.13;5024816;28;20339;-74
2023/08/06 04:57:21;;;;;;;92.30;19.13;;;13.40;99.90;;;14.96;100.00;99399.53;5031104;28;20041;-75
2023/08/06 04:59:47;;;;;;;85.75;20.08;;;13.50;99.90;;;15.05;100.00;99399.81;5046660;28;20030;-75
2023/08/06 05:02:13;;;;;;;200.98;24.15;;;13.60;99.90;;;15.06;100.00;99402.25;5030152;28;20033;-75
2023/08/06 05:04:38;;;;;;;52.03;18.38;;;13.60;99.90;;;15.15;100.00;99397.03;5030960;28;20042;-75
2023/08/06 05:07:05;;;;;;;50.13;18.48;;;13.80;99.90;;;15.22;100.00;99391.25;5031523;28;20049;-76
2023/08/06 05:09:31;;;;;;;57.97;19.15;;;13.80;99.90;;;15.20;100.00;99379.72;5029931;28;20222;-75
2023/08/06 05:11:57;;;;;;;52.50;18.35;;;13.90;99.90;;;15.32;100.00;99384.91;5045702;28;20041;-75
2023/08/06 05:14:23;;;;;;;49.17;16.92;;;13.90;99.90;;;15.35;100.00;99385.16;5030751;28;20037;-75
2023/08/06 05:16:48;;;;;;;48.67;17.30;;;13.90;99.90;;;15.31;100.00;99381.31;5030644;28;20045;-76
2023/08/06 05:19:14;;;;;;;241.05;22.35;;;13.90;99.90;;;15.28;100.00;99392.06;5045531;28;20038;-75
2023/08/06 05:21:40;;;;;;;127.22;20.23;;;13.90;99.90;;;15.19;100.00;99405.53;5030213;28;20025;-75
2023/08/06 05:24:06;;;;;;;152.05;21.10;;;13.80;99.90;;;15.15;100.00;99398.97;5023091;28;20433;-76
2023/08/06 05:26:31;;;;;;;65.03;17.83;;;13.80;99.90;;;15.15;100.00;99410.75;5020892;28;20370;-76
2023/08/06 05:28:57;;;;;;;86.18;18.42;;;13.80;99.90;;;15.27;100.00;99440.69;5030946;28;20439;-76
2023/08/06 05:31:23;;;;;;;58.90;19.35;;;13.80;99.90;;;15.32;100.00;99439.88;5024078;28;20596;-76
2023/08/06 05:33:48;;;;;;;56.97;20.60;;;13.80;99.90;;;15.26;100.00;99430.00;5030658;28;20040;-76
2023/08/06 05:36:14;;;;;;;54.92;20.77;;;13.80;99.90;;;15.19;100.00;99395.38;5030712;28;20069;-77
2023/08/06 05:38:40;;;;;;;62.53;22.23;;;13.80;99.90;;;15.60;100.00;99440.34;5043315;28;20041;-78
2023/08/06 05:41:06;;;;;;;56.72;21.42;;;13.90;99.90;;;15.25;100.00;99420.91;5022044;28;20034;-77
2023/08/06 05:43:31;;;;;;;64.10;21.92;;;13.90;99.90;;;15.31;100.00;99400.56;5044130;28;20057;-79
2023/08/06 05:45:57;;;;;;;56.53;21.65;;;13.90;99.90;;;15.37;100.00;99393.94;5026677;28;20041;-76
2023/08/06 05:48:24;;;;;;;54.38;22.50;;;14.00;99.90;;;15.37;100.00;99388.44;5031004;28;20048;-77
2023/08/06 05:50:52;;;;;;;64.53;22.77;;;14.00;99.90;;;15.43;100.00;99382.94;5043747;28;20037;-76
2023/08/06 05:53:17;;;;;;;56.17;22.20;;;14.00;99.90;;;15.45;100.00;99386.25;5030242;28;20147;-77
2023/08/06 05:55:45;;;;;;;65.35;23.13;;;14.10;99.90;;;15.51;100.00;99388.66;5026002;28;20037;-76
2023/08/06 05:58:10;;;;;;;45.70;21.20;;;14.10;99.90;;;15.57;100.00;99383.97;5030109;28;20030;-76
2023/08/06 06:00:36;;;;;;;47.00;20.40;;;14.20;99.90;;;15.64;100.00;99383.69;5020302;28;20148;-76
2023/08/06 06:03:02;;;;;;;45.60;20.92;;;14.20;99.90;;;16.53;100.00;99388.41;5023779;28;20040;-76
2023/08/06 06:05:28;;;;;;;46.42;21.05;;;14.30;99.90;;;16.89;100.00;99447.03;5030125;28;20145;-76
2023/08/06 06:07:54;;;;;;;37.28;19.10;;;14.50;99.90;;;17.00;100.00;99484.47;5044257;28;20056;-75
2023/08/06 06:10:20;;;;;;;33.42;17.25;;;14.50;99.90;;;17.02;100.00;99501.50;5028813;28;20033;-77
2023/08/06 06:12:46;;;;;;;36.75;17.83;;;14.50;99.90;;;16.46;100.00;99509.03;5023916;28;20088;-75
2023/08/06 06:15:11;;;;;;;30.52;16.42;;;14.60;99.90;;;16.18;100.00;99491.28;5024028;28;20091;-75
2023/08/06 06:17:37;;;;;;;31.10;16.38;;;14.70;99.90;;;16.15;100.00;99437.63;5028282;28;20049;-76
2023/08/06 06:20:04;;;;;;;27.15;14.73;;;14.70;99.90;;;16.07;100.00;99422.56;5019609;28;20089;-76
2023/08/06 06:22:30;;;;;;;26.75;14.13;;;14.70;99.90;;;16.01;100.00;99420.94;5029665;28;20393;-76
2023/08/06 06:24:56;;;;;;;26.33;14.18;;;14.60;99.90;;;16.85;100.00;99471.59;5023280;28;20482;-77
2023/08/06 06:27:21;;;;;;;23.77;13.70;;;14.60;99.90;;;16.58;100.00;99470.16;5021407;28;20046;-78
2023/08/06 06:29:47;;;;;;;28.73;15.80;;;14.60;99.90;;;17.10;100.00;99495.38;5030958;28;20034;-78
2023/08/06 06:32:13;;;;;;;30.13;16.52;;;14.60;99.90;;;17.30;100.00;99512.84;5028141;28;20037;-82
2023/08/06 06:34:39;;;;;;;29.20;15.82;;;14.70;99.90;;;16.44;100.00;99515.91;5029624;28;20378;-77
2023/08/06 06:37:05;;;;;;;24.50;13.95;;;14.70;99.90;;;16.29;100.00;99467.28;5028191;28;20037;-76
2023/08/06 06:39:32;;;;;;;27.90;15.25;;;14.70;99.90;;;16.31;100.00;99445.81;5021309;28;20453;-76
2023/08/06 06:41:57;;;;;;;24.70;14.30;;;14.80;99.90;;;16.41;100.00;99412.72;5028540;28;20029;-82
2023/08/06 06:44:31;;;;;;;25.08;14.15;;;14.90;99.90;;;16.50;100.00;99399.16;4997371;28;20486;-77
2023/08/06 06:46:56;;;;;;;27.80;15.05;;;15.00;99.90;;;16.54;100.00;99372.69;5026144;28;20083;-83
2023/08/06 06:49:22;;;;;;;27.98;15.00;;;15.10;99.90;;;16.98;100.00;99382.00;5028249;28;20044;-80
2023/08/06 06:51:48;;;;;;;22.83;14.85;;;15.20;99.90;;;16.86;100.00;99390.63;5015675;28;20084;-79
2023/08/06 06:54:14;;;;;;;31.60;17.75;;;15.40;99.90;;;16.97;100.00;99366.53;5027245;28;20456;-79
2023/08/06 06:56:39;;;;;;;29.20;16.05;;;15.50;99.90;;;17.13;100.00;99386.53;5016618;28;20034;-79
2023/08/06 06:59:05;;;;;;;29.70;16.25;;;15.60;99.90;;;17.30;100.00;99394.34;5025422;28;20034;-80
2023/08/06 07:01:31;;;;;;;26.73;15.60;;;15.70;99.90;;;17.50;100.00;99407.06;5025822;28;20084;-80
2023/08/06 07:03:57;;;;;;;20.70;14.15;;;15.80;99.90;;;17.49;100.00;99418.38;5037053;28;20040;-81
2023/08/06 07:06:22;;;;;;;22.23;13.23;;;15.90;99.90;;;17.52;100.00;99415.06;5029591;28;20042;-81
2023/08/06 07:08:48;;;;;;;22.13;14.27;;;15.90;99.90;;;17.57;100.00;99397.59;5015008;28;20121;-82
2023/08/06 07:11:14;;;;;;;17.83;11.88;;;16.00;99.90;;;17.65;100.00;99422.59;5038514;28;20544;-84
2023/08/06 07:13:40;;;;;;;18.15;11.95;;;16.00;99.90;;;17.72;100.00;99421.41;5016043;28;20041;-80
2023/08/06 07:16:06;;;;;;;14.07;10.32;;;16.20;99.90;;;17.85;100.00;99428.16;5018002;28;20061;-81
2023/08/06 07:18:31;;;;;;;13.30;8.70;;;16.20;99.90;;;17.89;100.00;99429.19;5017390;28;20037;-83
2023/08/06 07:20:57;;;;;;;12.18;8.00;;;16.30;99.90;;;17.83;100.00;99445.81;5013729;28;20465;-82
2023/08/06 07:23:25;;;;;;;9.05;6.72;;;16.20;99.90;;;17.72;100.00;99466.38;5022185;28;20049;-82
2023/08/06 07:25:51;;;;;;;8.20;6.82;;;16.20;99.90;;;17.82;100.00;99465.44;5010977;28;20040;-82
2023/08/06 07:28:17;;;;;;;9.98;7.47;;;16.20;99.90;;;17.94;100.00;99446.50;5017150;28;20026;-82
2023/08/06 07:30:45;;;;;;;9.73;7.70;;;16.30;99.90;;;18.32;100.00;99433.91;5020304;28;20394;-82
2023/08/06 07:33:11;;;;;;;10.35;8.00;;;16.60;99.90;;;18.51;100.00;99429.19;5027094;28;20048;-84
2023/08/06 07:35:38;;;;;;;8.98;7.43;;;16.80;99.90;;;18.55;100.00;99444.03;5030501;28;20041;-83
2023/08/06 07:38:04;;;;;;;9.57;6.78;;;16.90;99.90;;;19.67;100.00;99493.31;5028010;28;20041;-83
2023/08/06 07:40:30;;;;;;;9.18;6.93;;;16.90;99.90;;;18.66;100.00;99510.97;5030355;28;20042;-82
2023/08/06 07:42:55;;;;;;;7.78;5.30;;;16.90;99.90;;;18.23;100.00;99525.66;5025926;28;20037;-81
2023/08/06 07:45:21;;;;;;;6.55;4.82;;;16.70;99.90;;;18.28;100.00;99537.75;5018632;28;20478;-82
2023/08/06 07:47:49;;;;;;;8.82;5.68;;;16.70;99.90;;;18.37;100.00;99520.22;5015847;28;20038;-80
2023/08/06 07:50:15;;;;;;;5.88;4.80;;;16.70;99.90;;;18.94;100.00;99537.94;5013652;28;20068;-81
2023/08/06 07:52:40;;;;;;;8.30;5.03;;;16.80;99.90;;;19.45;100.00;99588.03;5016221;28;20053;-81
2023/08/06 07:55:07;;;;;;;5.72;4.63;;;16.90;99.90;;;19.79;100.00;99586.88;5040644;28;20049;-81
2023/08/06 07:57:34;;;;;;;7.70;3.95;;;17.10;99.90;;;20.04;100.00;99590.31;5033288;28;20041;-80
2023/08/06 08:00:00;;;;;;;5.40;4.40;;;17.40;99.90;;;20.50;100.00;99585.78;5024099;28;20041;-81
2023/08/06 08:02:26;;;;;;;6.53;3.78;;;17.70;99.90;;;19.73;100.00;99608.28;5005800;28;20046;-81
2023/08/06 08:04:52;;;;;;;4.90;3.13;;;17.70;99.90;;;19.98;100.00;99620.03;5030488;28;20084;-80
2023/08/06 08:07:18;;;;;;;4.03;2.70;;;17.80;99.90;;;20.38;100.00;99638.94;5021104;28;20049;-81
2023/08/06 08:09:45;;;;;;;3.30;2.38;;;17.80;99.90;;;20.20;100.00;99671.13;5026310;28;20060;-81
2023/08/06 08:12:11;;;;;;;5.47;2.53;;;17.70;99.90;;;20.31;100.00;99669.00;5015635;28;20045;-81
2023/08/06 08:14:37;;;;;;;3.38;2.15;;;17.80;99.90;;;20.36;100.00;99672.50;5017795;28;20033;-81
2023/08/06 08:17:05;;;;;;;4.18;2.05;;;17.80;99.90;;;20.04;100.00;99689.97;5041514;28;20045;-81
2023/08/06 08:19:31;;;;;;;2.75;1.90;;;17.80;99.90;;;20.21;100.00;99689.38;5019083;28;20085;-81
2023/08/06 08:21:57;;;;;;;2.72;1.73;;;17.80;99.90;;;20.53;100.00;99682.13;5020818;28;20076;-80
2023/08/06 08:24:24;;;;;;;4.43;1.70;;;17.90;99.90;;;20.88;100.00;99687.28;5028994;28;20478;-81
2023/08/06 08:26:53;;;;;;;4.78;2.00;;;18.20;99.90;;;21.10;100.00;99684.56;5024366;28;20111;-81
2023/08/06 08:29:22;;;;;;;2.83;1.67;;;18.50;99.90;;;21.56;100.00;99688.22;5031752;28;20049;-81
2023/08/06 08:31:50;;;;;;;2.15;1.60;;;;;;;21.66;100.00;99687.19;5031430;28;20084;-80
2023/08/06 08:34:19;;;;;;;2.70;1.77;;;;;;;22.05;100.00;99681.25;5030573;28;20052;-81
2023/08/06 08:36:49;;;;;;;4.15;1.95;;;;;;;22.16;100.00;99684.59;5029182;28;20696;-81
2023/08/06 08:39:15;;;;;;;3.47;2.10;;;;;;;22.44;100.00;99682.41;5025235;28;20501;-82
2023/08/06 08:41:42;;;;;;;2.70;1.70;;;;;;;22.55;100.00;99672.72;5031914;28;20794;-81
2023/08/06 08:44:12;;;;;;;4.93;1.73;;;;;;;22.65;100.00;99684.66;5024054;28;20505;-82
2023/08/06 08:46:42;;;;;;;4.13;1.80;;;;;;;22.78;100.00;99672.59;5019586;28;20034;-82
2023/08/06 08:49:08;;;;;;;3.05;1.67;;;;;;;23.31;100.00;99675.47;5026623;28;20065;-82
2023/08/06 08:51:35;;;;;;;2.80;1.58;;;;;;;23.27;100.00;99677.28;5024146;28;20045;-81
2023/08/06 08:54:04;;;;;;;2.55;1.60;;;;;;;22.63;100.00;99664.72;5029579;28;20456;-82
2023/08/06 08:56:31;;;;;;;2.83;1.60;;;;;;;22.03;100.00;99673.25;5031746;28;20033;-81
2023/08/06 08:58:57;;;;;;;2.95;1.90;;;;;;;22.31;100.00;99663.91;5019178;28;20048;-81
2023/08/06 09:01:25;;;;;;;3.13;1.60;;;;;;;23.03;100.00;99667.41;5025012;28;20107;-82
2023/08/06 09:03:53;;;;;;;2.20;1.52;;;;;;;23.38;100.00;99670.25;5025252;28;20069;-81
2023/08/06 09:06:21;;;;;;;2.50;1.58;;;;;;;23.61;100.00;99672.03;5027208;28;20038;-81
2023/08/06 09:09:13;;;;;;;2.45;1.60;;;;;;;23.55;100.00;99668.59;5027588;28;20033;-82
2023/08/06 09:11:49;;;;;;;4.25;2.00;;;;;;;23.45;100.00;99666.16;5020959;28;20120;-82
2023/08/06 09:14:15;;;;;;;3.47;1.80;;;;;;;22.80;100.00;99670.28;5021995;28;20037;-82
2023/08/06 09:16:42;;;;;;;2.40;1.77;;;;;;;22.85;100.00;99674.91;5025544;28;20118;-81
2023/08/06 09:19:09;;;;;;;3.88;1.90;;;;;;;23.30;100.00;99665.50;5030877;28;20092;-84
2023/08/06 09:21:42;;;;;;;2.65;1.80;;;;;;;23.46;100.00;99665.00;5019549;28;20057;-81
2023/08/06 09:24:12;;;;;;;2.25;1.40;;;;;;;23.51;100.00;99662.88;5030369;28;20069;-81
2023/08/06 09:26:40;;;;;;;2.72;1.75;;;;;;;23.46;100.00;99660.25;5031232;28;20029;-81
2023/08/06 09:29:07;;;;;;;3.08;1.67;;;;;;;23.21;100.00;99664.66;5022517;28;20030;-82
2023/08/06 09:31:52;;;;;;;3.47;1.50;;;;;;;23.83;100.00;99671.03;5026966;28;20037;-80
2023/08/06 09:34:22;;;;;;;3.17;1.73;;;;;;;23.81;100.00;99664.97;5024567;28;20101;-80
2023/08/06 09:36:52;;;;;;;2.70;1.40;;;;;;;23.83;100.00;99663.50;5032103;28;20088;-83
2023/08/06 09:39:29;;;;;;;2.65;1.88;;;;;;;23.84;100.00;99662.34;5032026;28;20034;-79
2023/08/06 09:42:02;;;;;;;1.98;1.52;;;;;;;23.83;100.00;99668.22;5027820;28;20056;-82
2023/08/06 09:44:29;;;;;;;3.20;1.70;;;;;;;23.66;100.00;99663.50;5019140;28;20033;-81
2023/08/06 09:47:05;;;;;;;3.28;1.80;;;;;;;23.97;100.00;99671.66;5005154;28;20038;-80
2023/08/06 09:49:34;;;;;;;3.60;1.60;;;;;;;23.76;100.00;99662.34;5011583;28;20478;-81
2023/08/06 09:52:01;;;;;;;3.15;1.70;;;;;;;24.61;100.00;99665.53;5025657;28;20073;-81
2023/08/06 09:54:30;;;;;;;3.47;1.80;;;;;;;24.26;100.00;99667.34;5022858;28;20520;-81
2023/08/06 09:56:56;;;;;;;2.85;1.40;;;;;;;24.51;100.00;99662.00;5029470;28;20544;-81
2023/08/06 09:59:24;;;;;;;3.97;1.80;;;;;;;24.66;100.00;99654.19;5026048;28;20439;-81
2023/08/06 10:01:50;;;;;;;2.55;1.63;;;;;;;25.02;100.00;99657.63;5026954;28;20038;-82
2023/08/06 10:04:17;;;;;;;3.97;1.53;;;;;;;25.13;100.00;99653.28;5044616;28;20037;-82
2023/08/06 10:06:46;;;;;;;3.38;1.70;;;;;;;25.00;100.00;99657.97;5023078;28;20294;-82
2023/08/06 10:09:12;;;;;;;3.35;1.50;;;;;;;24.74;100.00;99649.72;5030051;28;20034;-82
2023/08/06 10:11:40;;;;;;;3.40;1.52;;;;;;;24.69;100.00;99654.34;5028322;28;20092;-80
2023/08/06 10:14:39;;;;;;;2.85;1.55;;;;;;;24.88;100.00;99655.09;5031221;28;20218;-80
2023/08/06 10:17:06;;;;;;;2.83;1.67;;;;;;;24.98;100.00;99649.13;5037217;28;20067;-81